sensor_id;sensor_type;location;lat;lon;timestamp;P1;durP1;ratioP1;P2;durP2;ratioP2
45198;SDS011;30941;46.422;18.772;2023-06-22T00:00:38;20.23;;;15.15;;
45198;SDS011;30941;46.422;18.772;2023-06-22T00:03:07;17.60;;;15.05;;
45198;SDS011;30941;46.422;18.772;2023-06-22T00:05:32;18.70;;;13.98;;
45198;SDS011;30941;46.422;18.772;2023-06-22T00:07:57;19.90;;;14.57;;
45198;SDS011;30941;46.422;18.772;2023-06-22T00:10:23;17.75;;;13.85;;
45198;SDS011;30941;46.422;18.772;2023-06-22T00:12:48;19.88;;;14.10;;
45198;SDS011;30941;46.422;18.772;2023-06-22T00:15:13;18.33;;;14.98;;
45198;SDS011;30941;46.422;18.772;2023-06-22T00:17:39;16.92;;;14.23;;
45198;SDS011;30941;46.422;18.772;2023-06-22T00:20:04;20.23;;;14.45;;
45198;SDS011;30941;46.422;18.772;2023-06-22T00:22:34;19.25;;;14.18;;
45198;SDS011;30941;46.422;18.772;2023-06-22T00:25:04;18.13;;;14.68;;
45198;SDS011;30941;46.422;18.772;2023-06-22T00:27:31;18.80;;;14.43;;
45198;SDS011;30941;46.422;18.772;2023-06-22T00:29:56;16.73;;;14.93;;
45198;SDS011;30941;46.422;18.772;2023-06-22T00:32:22;20.75;;;13.93;;
45198;SDS011;30941;46.422;18.772;2023-06-22T00:34:47;18.42;;;14.07;;
45198;SDS011;30941;46.422;18.772;2023-06-22T00:37:13;19.48;;;14.65;;
45198;SDS011;30941;46.422;18.772;2023-06-22T00:39:38;17.70;;;13.88;;
45198;SDS011;30941;46.422;18.772;2023-06-22T00:42:04;16.67;;;14.10;;
45198;SDS011;30941;46.422;18.772;2023-06-22T00:44:29;19.88;;;14.82;;
45198;SDS011;30941;46.422;18.772;2023-06-22T00:46:55;17.80;;;14.68;;
45198;SDS011;30941;46.422;18.772;2023-06-22T00:49:20;19.35;;;15.25;;
45198;SDS011;30941;46.422;18.772;2023-06-22T00:51:46;17.50;;;14.40;;
45198;SDS011;30941;46.422;18.772;2023-06-22T00:54:13;20.98;;;15.35;;
45198;SDS011;30941;46.422;18.772;2023-06-22T00:56:39;21.13;;;15.13;;
45198;SDS011;30941;46.422;18.772;2023-06-22T00:59:05;19.45;;;14.85;;
45198;SDS011;30941;46.422;18.772;2023-06-22T01:01:31;17.55;;;14.32;;
45198;SDS011;30941;46.422;18.772;2023-06-22T01:03:57;19.15;;;15.32;;
45198;SDS011;30941;46.422;18.772;2023-06-22T01:06:26;22.85;;;15.13;;
45198;SDS011;30941;46.422;18.772;2023-06-22T01:09:06;22.23;;;14.63;;
45198;SDS011;30941;46.422;18.772;2023-06-22T01:11:41;21.10;;;15.15;;
45198;SDS011;30941;46.422;18.772;2023-06-22T01:14:24;18.15;;;15.70;;
45198;SDS011;30941;46.422;18.772;2023-06-22T01:16:56;21.92;;;16.33;;
45198;SDS011;30941;46.422;18.772;2023-06-22T01:19:29;18.52;;;14.85;;
45198;SDS011;30941;46.422;18.772;2023-06-22T01:22:03;18.38;;;14.27;;
45198;SDS011;30941;46.422;18.772;2023-06-22T01:24:54;20.20;;;15.20;;
45198;SDS011;30941;46.422;18.772;2023-06-22T01:27:44;16.00;;;14.23;;
45198;SDS011;30941;46.422;18.772;2023-06-22T01:30:40;17.25;;;14.85;;
45198;SDS011;30941;46.422;18.772;2023-06-22T01:33:07;18.48;;;15.18;;
45198;SDS011;30941;46.422;18.772;2023-06-22T01:35:36;16.63;;;14.73;;
45198;SDS011;30941;46.422;18.772;2023-06-22T01:38:02;16.50;;;14.00;;
45198;SDS011;30941;46.422;18.772;2023-06-22T01:40:28;21.15;;;15.13;;
45198;SDS011;30941;46.422;18.772;2023-06-22T01:42:55;18.42;;;14.30;;
45198;SDS011;30941;46.422;18.772;2023-06-22T01:45:20;23.33;;;15.65;;
45198;SDS011;30941;46.422;18.772;2023-06-22T01:47:46;19.40;;;14.77;;
45198;SDS011;30941;46.422;18.772;2023-06-22T01:50:12;18.55;;;15.10;;
45198;SDS011;30941;46.422;18.772;2023-06-22T01:52:37;19.88;;;14.73;;
45198;SDS011;30941;46.422;18.772;2023-06-22T01:55:03;19.48;;;15.40;;
45198;SDS011;30941;46.422;18.772;2023-06-22T01:57:29;19.45;;;15.30;;
45198;SDS011;30941;46.422;18.772;2023-06-22T02:00:04;24.17;;;15.93;;
45198;SDS011;30941;46.422;18.772;2023-06-22T02:02:35;17.17;;;15.38;;
45198;SDS011;30941;46.422;18.772;2023-06-22T02:05:06;19.23;;;15.18;;
45198;SDS011;30941;46.422;18.772;2023-06-22T02:08:15;17.38;;;15.10;;
45198;SDS011;30941;46.422;18.772;2023-06-22T02:10:42;22.38;;;16.10;;
45198;SDS011;30941;46.422;18.772;2023-06-22T02:13:08;17.70;;;15.32;;
45198;SDS011;30941;46.422;18.772;2023-06-22T02:15:34;19.10;;;16.27;;
45198;SDS011;30941;46.422;18.772;2023-06-22T02:18:00;20.40;;;16.30;;
45198;SDS011;30941;46.422;18.772;2023-06-22T02:20:25;21.70;;;16.02;;
45198;SDS011;30941;46.422;18.772;2023-06-22T02:22:51;17.38;;;15.57;;
45198;SDS011;30941;46.422;18.772;2023-06-22T02:25:16;19.40;;;15.48;;
45198;SDS011;30941;46.422;18.772;2023-06-22T02:27:41;21.17;;;15.95;;
45198;SDS011;30941;46.422;18.772;2023-06-22T02:30:10;19.80;;;16.67;;
45198;SDS011;30941;46.422;18.772;2023-06-22T02:32:36;17.70;;;15.30;;
45198;SDS011;30941;46.422;18.772;2023-06-22T02:35:01;20.55;;;14.93;;
45198;SDS011;30941;46.422;18.772;2023-06-22T02:37:30;19.90;;;14.75;;
45198;SDS011;30941;46.422;18.772;2023-06-22T02:39:56;19.55;;;15.68;;
45198;SDS011;30941;46.422;18.772;2023-06-22T02:42:21;19.10;;;15.10;;
45198;SDS011;30941;46.422;18.772;2023-06-22T02:44:47;24.77;;;16.63;;
45198;SDS011;30941;46.422;18.772;2023-06-22T02:47:12;21.33;;;15.52;;
45198;SDS011;30941;46.422;18.772;2023-06-22T02:49:38;20.95;;;14.88;;
45198;SDS011;30941;46.422;18.772;2023-06-22T02:52:03;22.63;;;15.75;;
45198;SDS011;30941;46.422;18.772;2023-06-22T02:54:29;20.23;;;15.73;;
45198;SDS011;30941;46.422;18.772;2023-06-22T02:56:54;26.33;;;16.45;;
45198;SDS011;30941;46.422;18.772;2023-06-22T02:59:20;22.27;;;16.40;;
45198;SDS011;30941;46.422;18.772;2023-06-22T03:01:48;19.77;;;16.08;;
45198;SDS011;30941;46.422;18.772;2023-06-22T03:04:15;22.80;;;16.77;;
45198;SDS011;30941;46.422;18.772;2023-06-22T03:06:40;21.67;;;16.75;;
45198;SDS011;30941;46.422;18.772;2023-06-22T03:09:06;21.90;;;17.08;;
45198;SDS011;30941;46.422;18.772;2023-06-22T03:11:32;19.70;;;16.25;;
45198;SDS011;30941;46.422;18.772;2023-06-22T03:13:59;24.45;;;17.00;;
45198;SDS011;30941;46.422;18.772;2023-06-22T03:16:25;22.58;;;17.70;;
45198;SDS011;30941;46.422;18.772;2023-06-22T03:18:50;20.85;;;16.45;;
45198;SDS011;30941;46.422;18.772;2023-06-22T03:21:16;25.13;;;16.70;;
45198;SDS011;30941;46.422;18.772;2023-06-22T03:23:42;19.98;;;16.33;;
45198;SDS011;30941;46.422;18.772;2023-06-22T03:26:10;22.05;;;17.58;;
45198;SDS011;30941;46.422;18.772;2023-06-22T03:28:37;23.55;;;17.48;;
45198;SDS011;30941;46.422;18.772;2023-06-22T03:31:02;21.00;;;16.23;;
45198;SDS011;30941;46.422;18.772;2023-06-22T03:33:28;20.17;;;17.13;;
45198;SDS011;30941;46.422;18.772;2023-06-22T03:35:54;24.08;;;17.25;;
45198;SDS011;30941;46.422;18.772;2023-06-22T03:38:20;26.63;;;17.88;;
45198;SDS011;30941;46.422;18.772;2023-06-22T03:40:45;21.27;;;17.35;;
45198;SDS011;30941;46.422;18.772;2023-06-22T03:43:10;23.15;;;17.67;;
45198;SDS011;30941;46.422;18.772;2023-06-22T03:45:36;19.88;;;16.38;;
45198;SDS011;30941;46.422;18.772;2023-06-22T03:48:02;24.80;;;16.92;;
45198;SDS011;30941;46.422;18.772;2023-06-22T03:50:27;20.70;;;15.50;;
45198;SDS011;30941;46.422;18.772;2023-06-22T03:52:53;19.80;;;16.05;;
45198;SDS011;30941;46.422;18.772;2023-06-22T03:55:22;19.27;;;16.42;;
45198;SDS011;30941;46.422;18.772;2023-06-22T03:57:47;20.52;;;15.27;;
45198;SDS011;30941;46.422;18.772;2023-06-22T04:00:13;21.98;;;15.73;;
45198;SDS011;30941;46.422;18.772;2023-06-22T04:02:40;20.73;;;15.65;;
45198;SDS011;30941;46.422;18.772;2023-06-22T04:05:06;20.60;;;15.65;;
45198;SDS011;30941;46.422;18.772;2023-06-22T04:07:33;19.80;;;14.75;;
45198;SDS011;30941;46.422;18.772;2023-06-22T04:09:58;16.63;;;14.45;;
45198;SDS011;30941;46.422;18.772;2023-06-22T04:12:24;19.02;;;14.13;;
45198;SDS011;30941;46.422;18.772;2023-06-22T04:14:49;23.80;;;14.18;;
45198;SDS011;30941;46.422;18.772;2023-06-22T04:17:14;18.92;;;13.52;;
45198;SDS011;30941;46.422;18.772;2023-06-22T04:19:40;17.27;;;13.63;;
45198;SDS011;30941;46.422;18.772;2023-06-22T04:22:06;18.10;;;13.73;;
45198;SDS011;30941;46.422;18.772;2023-06-22T04:24:32;15.90;;;13.23;;
45198;SDS011;30941;46.422;18.772;2023-06-22T04:26:58;14.70;;;13.02;;
45198;SDS011;30941;46.422;18.772;2023-06-22T04:29:25;16.10;;;12.40;;
45198;SDS011;30941;46.422;18.772;2023-06-22T04:31:53;16.40;;;12.68;;
45198;SDS011;30941;46.422;18.772;2023-06-22T04:34:21;15.75;;;12.55;;
45198;SDS011;30941;46.422;18.772;2023-06-22T04:36:46;17.67;;;12.93;;
45198;SDS011;30941;46.422;18.772;2023-06-22T04:39:11;16.90;;;13.25;;
45198;SDS011;30941;46.422;18.772;2023-06-22T04:41:37;16.38;;;11.75;;
45198;SDS011;30941;46.422;18.772;2023-06-22T04:44:15;14.70;;;11.93;;
45198;SDS011;30941;46.422;18.772;2023-06-22T04:46:49;15.10;;;11.73;;
45198;SDS011;30941;46.422;18.772;2023-06-22T04:49:25;16.98;;;10.40;;
45198;SDS011;30941;46.422;18.772;2023-06-22T04:51:57;15.50;;;11.88;;
45198;SDS011;30941;46.422;18.772;2023-06-22T04:54:23;13.43;;;11.10;;
45198;SDS011;30941;46.422;18.772;2023-06-22T04:56:48;15.95;;;10.90;;
45198;SDS011;30941;46.422;18.772;2023-06-22T04:59:18;16.60;;;11.57;;
45198;SDS011;30941;46.422;18.772;2023-06-22T05:01:43;15.07;;;11.30;;
45198;SDS011;30941;46.422;18.772;2023-06-22T05:04:09;13.07;;;11.30;;
45198;SDS011;30941;46.422;18.772;2023-06-22T05:06:34;18.02;;;11.90;;
45198;SDS011;30941;46.422;18.772;2023-06-22T05:08:59;15.48;;;10.80;;
45198;SDS011;30941;46.422;18.772;2023-06-22T05:11:25;14.80;;;11.60;;
45198;SDS011;30941;46.422;18.772;2023-06-22T05:13:51;12.23;;;9.95;;
45198;SDS011;30941;46.422;18.772;2023-06-22T05:16:17;16.63;;;9.80;;
45198;SDS011;30941;46.422;18.772;2023-06-22T05:18:42;14.27;;;10.25;;
45198;SDS011;30941;46.422;18.772;2023-06-22T05:21:08;12.75;;;10.35;;
45198;SDS011;30941;46.422;18.772;2023-06-22T05:23:33;11.30;;;8.98;;
45198;SDS011;30941;46.422;18.772;2023-06-22T05:25:59;14.57;;;9.60;;
45198;SDS011;30941;46.422;18.772;2023-06-22T05:28:24;11.52;;;9.43;;
45198;SDS011;30941;46.422;18.772;2023-06-22T05:30:50;19.25;;;9.38;;
45198;SDS011;30941;46.422;18.772;2023-06-22T05:33:15;11.57;;;9.38;;
45198;SDS011;30941;46.422;18.772;2023-06-22T05:35:40;12.13;;;9.23;;
45198;SDS011;30941;46.422;18.772;2023-06-22T05:38:07;12.98;;;9.57;;
45198;SDS011;30941;46.422;18.772;2023-06-22T05:40:33;12.50;;;9.63;;
45198;SDS011;30941;46.422;18.772;2023-06-22T05:42:58;12.23;;;9.82;;
45198;SDS011;30941;46.422;18.772;2023-06-22T05:45:25;18.67;;;10.52;;
45198;SDS011;30941;46.422;18.772;2023-06-22T05:47:51;13.15;;;9.73;;
45198;SDS011;30941;46.422;18.772;2023-06-22T05:50:16;14.68;;;9.50;;
45198;SDS011;30941;46.422;18.772;2023-06-22T05:52:41;13.05;;;9.43;;
45198;SDS011;30941;46.422;18.772;2023-06-22T05:55:07;14.00;;;9.70;;
45198;SDS011;30941;46.422;18.772;2023-06-22T05:57:33;13.10;;;9.05;;
45198;SDS011;30941;46.422;18.772;2023-06-22T05:59:58;12.70;;;9.00;;
45198;SDS011;30941;46.422;18.772;2023-06-22T06:02:23;12.52;;;8.85;;
45198;SDS011;30941;46.422;18.772;2023-06-22T06:04:50;10.48;;;8.18;;
45198;SDS011;30941;46.422;18.772;2023-06-22T06:07:17;13.60;;;8.90;;
45198;SDS011;30941;46.422;18.772;2023-06-22T06:09:43;13.60;;;9.25;;
45198;SDS011;30941;46.422;18.772;2023-06-22T06:12:08;11.95;;;8.43;;
45198;SDS011;30941;46.422;18.772;2023-06-22T06:14:34;12.32;;;8.43;;
45198;SDS011;30941;46.422;18.772;2023-06-22T06:16:59;10.23;;;8.20;;
45198;SDS011;30941;46.422;18.772;2023-06-22T06:19:24;11.25;;;7.95;;
45198;SDS011;30941;46.422;18.772;2023-06-22T06:21:50;9.52;;;8.02;;
45198;SDS011;30941;46.422;18.772;2023-06-22T06:24:16;10.57;;;7.78;;
45198;SDS011;30941;46.422;18.772;2023-06-22T06:26:41;10.93;;;8.82;;
45198;SDS011;30941;46.422;18.772;2023-06-22T06:29:06;9.25;;;8.02;;
45198;SDS011;30941;46.422;18.772;2023-06-22T06:31:32;12.98;;;8.48;;
45198;SDS011;30941;46.422;18.772;2023-06-22T06:33:59;10.73;;;8.38;;
45198;SDS011;30941;46.422;18.772;2023-06-22T06:36:25;12.20;;;9.32;;
45198;SDS011;30941;46.422;18.772;2023-06-22T06:38:50;10.23;;;8.80;;
45198;SDS011;30941;46.422;18.772;2023-06-22T06:41:15;11.25;;;8.13;;
45198;SDS011;30941;46.422;18.772;2023-06-22T06:43:41;10.75;;;8.93;;
45198;SDS011;30941;46.422;18.772;2023-06-22T06:46:09;12.35;;;8.90;;
45198;SDS011;30941;46.422;18.772;2023-06-22T06:48:35;10.23;;;8.98;;
45198;SDS011;30941;46.422;18.772;2023-06-22T06:51:00;11.95;;;9.02;;
45198;SDS011;30941;46.422;18.772;2023-06-22T06:53:26;13.60;;;8.90;;
45198;SDS011;30941;46.422;18.772;2023-06-22T06:55:51;13.30;;;9.52;;
45198;SDS011;30941;46.422;18.772;2023-06-22T06:58:17;14.88;;;9.98;;
45198;SDS011;30941;46.422;18.772;2023-06-22T07:00:42;11.27;;;9.25;;
45198;SDS011;30941;46.422;18.772;2023-06-22T07:03:08;13.15;;;9.43;;
45198;SDS011;30941;46.422;18.772;2023-06-22T07:05:34;11.38;;;9.13;;
45198;SDS011;30941;46.422;18.772;2023-06-22T07:08:00;12.23;;;9.52;;
45198;SDS011;30941;46.422;18.772;2023-06-22T07:10:25;11.40;;;8.80;;
45198;SDS011;30941;46.422;18.772;2023-06-22T07:12:51;11.90;;;9.20;;
45198;SDS011;30941;46.422;18.772;2023-06-22T07:15:16;13.25;;;9.55;;
45198;SDS011;30941;46.422;18.772;2023-06-22T07:17:42;10.57;;;9.48;;
45198;SDS011;30941;46.422;18.772;2023-06-22T07:20:07;11.05;;;9.57;;
45198;SDS011;30941;46.422;18.772;2023-06-22T07:22:40;10.80;;;9.63;;
45198;SDS011;30941;46.422;18.772;2023-06-22T07:25:06;11.80;;;9.27;;
45198;SDS011;30941;46.422;18.772;2023-06-22T07:27:38;11.77;;;8.85;;
45198;SDS011;30941;46.422;18.772;2023-06-22T07:30:07;16.95;;;9.32;;
45198;SDS011;30941;46.422;18.772;2023-06-22T07:32:33;10.65;;;8.63;;
45198;SDS011;30941;46.422;18.772;2023-06-22T07:34:59;12.57;;;8.77;;
45198;SDS011;30941;46.422;18.772;2023-06-22T07:37:24;11.23;;;9.23;;
45198;SDS011;30941;46.422;18.772;2023-06-22T07:39:50;10.07;;;8.10;;
45198;SDS011;30941;46.422;18.772;2023-06-22T07:42:18;12.77;;;9.15;;
45198;SDS011;30941;46.422;18.772;2023-06-22T07:44:44;11.68;;;9.80;;
45198;SDS011;30941;46.422;18.772;2023-06-22T07:47:09;10.18;;;9.15;;
45198;SDS011;30941;46.422;18.772;2023-06-22T07:49:35;10.00;;;9.00;;
45198;SDS011;30941;46.422;18.772;2023-06-22T07:52:00;11.43;;;8.77;;
45198;SDS011;30941;46.422;18.772;2023-06-22T07:54:26;9.88;;;8.80;;
45198;SDS011;30941;46.422;18.772;2023-06-22T07:56:52;10.43;;;8.15;;
45198;SDS011;30941;46.422;18.772;2023-06-22T07:59:17;14.50;;;8.98;;
45198;SDS011;30941;46.422;18.772;2023-06-22T08:01:43;13.13;;;8.23;;
45198;SDS011;30941;46.422;18.772;2023-06-22T08:04:08;8.93;;;7.82;;
45198;SDS011;30941;46.422;18.772;2023-06-22T08:06:34;16.35;;;7.78;;
45198;SDS011;30941;46.422;18.772;2023-06-22T08:08:59;11.95;;;8.80;;
45198;SDS011;30941;46.422;18.772;2023-06-22T08:11:24;8.20;;;7.38;;
45198;SDS011;30941;46.422;18.772;2023-06-22T08:13:50;10.70;;;8.65;;
45198;SDS011;30941;46.422;18.772;2023-06-22T08:16:16;9.10;;;7.68;;
45198;SDS011;30941;46.422;18.772;2023-06-22T08:18:41;9.60;;;8.00;;
45198;SDS011;30941;46.422;18.772;2023-06-22T08:21:07;9.23;;;8.32;;
45198;SDS011;30941;46.422;18.772;2023-06-22T08:23:32;10.40;;;8.55;;
45198;SDS011;30941;46.422;18.772;2023-06-22T08:25:57;9.77;;;8.77;;
45198;SDS011;30941;46.422;18.772;2023-06-22T08:28:23;10.27;;;8.38;;
45198;SDS011;30941;46.422;18.772;2023-06-22T08:30:48;11.23;;;8.68;;
45198;SDS011;30941;46.422;18.772;2023-06-22T08:33:14;12.60;;;9.45;;
45198;SDS011;30941;46.422;18.772;2023-06-22T08:35:39;9.35;;;8.45;;
45198;SDS011;30941;46.422;18.772;2023-06-22T08:38:04;10.90;;;9.50;;
45198;SDS011;30941;46.422;18.772;2023-06-22T08:40:30;11.38;;;8.95;;
45198;SDS011;30941;46.422;18.772;2023-06-22T08:42:55;9.75;;;8.10;;
45198;SDS011;30941;46.422;18.772;2023-06-22T08:45:21;11.15;;;9.60;;
45198;SDS011;30941;46.422;18.772;2023-06-22T08:47:46;14.88;;;9.38;;
45198;SDS011;30941;46.422;18.772;2023-06-22T08:50:12;11.57;;;8.48;;
45198;SDS011;30941;46.422;18.772;2023-06-22T08:52:38;9.88;;;8.38;;
45198;SDS011;30941;46.422;18.772;2023-06-22T08:55:06;10.38;;;9.15;;
45198;SDS011;30941;46.422;18.772;2023-06-22T08:57:32;11.80;;;9.25;;
45198;SDS011;30941;46.422;18.772;2023-06-22T08:59:57;10.07;;;9.07;;
45198;SDS011;30941;46.422;18.772;2023-06-22T09:02:24;9.98;;;8.75;;
45198;SDS011;30941;46.422;18.772;2023-06-22T09:04:50;10.00;;;9.00;;
45198;SDS011;30941;46.422;18.772;2023-06-22T09:07:20;10.93;;;9.00;;
45198;SDS011;30941;46.422;18.772;2023-06-22T09:09:48;10.73;;;8.65;;
45198;SDS011;30941;46.422;18.772;2023-06-22T09:12:13;9.77;;;8.77;;
45198;SDS011;30941;46.422;18.772;2023-06-22T09:14:39;10.05;;;8.77;;
45198;SDS011;30941;46.422;18.772;2023-06-22T09:17:04;9.68;;;8.32;;
45198;SDS011;30941;46.422;18.772;2023-06-22T09:19:30;8.90;;;8.00;;
45198;SDS011;30941;46.422;18.772;2023-06-22T09:21:55;9.88;;;8.88;;
45198;SDS011;30941;46.422;18.772;2023-06-22T09:24:21;10.00;;;9.00;;
45198;SDS011;30941;46.422;18.772;2023-06-22T09:26:46;12.27;;;8.82;;
45198;SDS011;30941;46.422;18.772;2023-06-22T09:29:11;9.90;;;8.90;;
45198;SDS011;30941;46.422;18.772;2023-06-22T09:31:37;11.57;;;9.18;;
45198;SDS011;30941;46.422;18.772;2023-06-22T09:34:02;9.93;;;8.93;;
45198;SDS011;30941;46.422;18.772;2023-06-22T09:36:28;10.23;;;9.18;;
45198;SDS011;30941;46.422;18.772;2023-06-22T09:38:53;10.10;;;9.18;;
45198;SDS011;30941;46.422;18.772;2023-06-22T09:41:23;10.32;;;8.40;;
45198;SDS011;30941;46.422;18.772;2023-06-22T09:43:49;10.70;;;8.75;;
45198;SDS011;30941;46.422;18.772;2023-06-22T09:46:15;9.90;;;8.75;;
45198;SDS011;30941;46.422;18.772;2023-06-22T09:48:40;9.55;;;8.52;;
45198;SDS011;30941;46.422;18.772;2023-06-22T09:51:06;12.10;;;8.98;;
45198;SDS011;30941;46.422;18.772;2023-06-22T09:53:31;9.23;;;8.32;;
45198;SDS011;30941;46.422;18.772;2023-06-22T09:55:57;9.45;;;8.23;;
45198;SDS011;30941;46.422;18.772;2023-06-22T09:58:23;11.60;;;8.75;;
45198;SDS011;30941;46.422;18.772;2023-06-22T10:00:48;10.75;;;8.20;;
45198;SDS011;30941;46.422;18.772;2023-06-22T10:03:13;10.88;;;8.05;;
45198;SDS011;30941;46.422;18.772;2023-06-22T10:05:39;11.85;;;8.23;;
45198;SDS011;30941;46.422;18.772;2023-06-22T10:08:04;9.57;;;8.00;;
45198;SDS011;30941;46.422;18.772;2023-06-22T10:10:29;8.95;;;8.13;;
45198;SDS011;30941;46.422;18.772;2023-06-22T10:12:56;7.93;;;7.13;;
45198;SDS011;30941;46.422;18.772;2023-06-22T10:15:22;9.32;;;8.15;;
45198;SDS011;30941;46.422;18.772;2023-06-22T10:17:48;9.68;;;7.95;;
45198;SDS011;30941;46.422;18.772;2023-06-22T10:20:13;12.68;;;8.05;;
45198;SDS011;30941;46.422;18.772;2023-06-22T10:22:43;11.15;;;8.13;;
45198;SDS011;30941;46.422;18.772;2023-06-22T10:25:09;9.15;;;7.70;;
45198;SDS011;30941;46.422;18.772;2023-06-22T10:27:37;10.60;;;8.23;;
45198;SDS011;30941;46.422;18.772;2023-06-22T10:30:07;12.80;;;7.82;;
45198;SDS011;30941;46.422;18.772;2023-06-22T10:32:33;10.43;;;7.97;;
45198;SDS011;30941;46.422;18.772;2023-06-22T10:34:58;10.35;;;7.05;;
45198;SDS011;30941;46.422;18.772;2023-06-22T10:37:24;10.00;;;6.95;;
45198;SDS011;30941;46.422;18.772;2023-06-22T10:39:49;7.90;;;7.03;;
45198;SDS011;30941;46.422;18.772;2023-06-22T10:42:15;12.15;;;7.65;;
45198;SDS011;30941;46.422;18.772;2023-06-22T10:44:40;10.02;;;8.05;;
45198;SDS011;30941;46.422;18.772;2023-06-22T10:47:08;9.75;;;8.55;;
45198;SDS011;30941;46.422;18.772;2023-06-22T10:49:33;15.40;;;8.00;;
45198;SDS011;30941;46.422;18.772;2023-06-22T10:51:58;10.13;;;7.70;;
45198;SDS011;30941;46.422;18.772;2023-06-22T10:54:24;10.48;;;8.77;;
45198;SDS011;30941;46.422;18.772;2023-06-22T10:56:49;11.73;;;7.55;;
45198;SDS011;30941;46.422;18.772;2023-06-22T10:59:15;10.32;;;8.52;;
45198;SDS011;30941;46.422;18.772;2023-06-22T11:01:41;10.43;;;8.05;;
45198;SDS011;30941;46.422;18.772;2023-06-22T11:04:06;9.88;;;8.35;;
45198;SDS011;30941;46.422;18.772;2023-06-22T11:06:32;10.10;;;8.32;;
45198;SDS011;30941;46.422;18.772;2023-06-22T11:08:57;9.85;;;8.20;;
45198;SDS011;30941;46.422;18.772;2023-06-22T11:11:25;11.30;;;8.30;;
45198;SDS011;30941;46.422;18.772;2023-06-22T11:13:52;9.68;;;8.25;;
45198;SDS011;30941;46.422;18.772;2023-06-22T11:16:18;11.30;;;8.48;;
45198;SDS011;30941;46.422;18.772;2023-06-22T11:18:43;11.63;;;8.90;;
45198;SDS011;30941;46.422;18.772;2023-06-22T11:21:08;8.63;;;7.72;;
45198;SDS011;30941;46.422;18.772;2023-06-22T11:23:34;11.88;;;8.98;;
45198;SDS011;30941;46.422;18.772;2023-06-22T11:25:59;8.65;;;7.53;;
45198;SDS011;30941;46.422;18.772;2023-06-22T11:28:24;11.23;;;9.35;;
45198;SDS011;30941;46.422;18.772;2023-06-22T11:30:50;12.38;;;9.40;;
45198;SDS011;30941;46.422;18.772;2023-06-22T11:33:15;10.70;;;9.50;;
45198;SDS011;30941;46.422;18.772;2023-06-22T11:35:40;9.93;;;8.93;;
45198;SDS011;30941;46.422;18.772;2023-06-22T11:38:06;10.52;;;9.43;;
45198;SDS011;30941;46.422;18.772;2023-06-22T11:40:32;10.25;;;8.85;;
45198;SDS011;30941;46.422;18.772;2023-06-22T11:42:58;11.45;;;9.20;;
45198;SDS011;30941;46.422;18.772;2023-06-22T11:45:23;10.20;;;9.20;;
45198;SDS011;30941;46.422;18.772;2023-06-22T11:47:48;12.45;;;9.35;;
45198;SDS011;30941;46.422;18.772;2023-06-22T11:50:14;10.90;;;9.65;;
45198;SDS011;30941;46.422;18.772;2023-06-22T11:52:39;12.00;;;9.43;;
45198;SDS011;30941;46.422;18.772;2023-06-22T11:55:05;11.02;;;9.15;;
45198;SDS011;30941;46.422;18.772;2023-06-22T11:57:38;15.07;;;9.68;;
45198;SDS011;30941;46.422;18.772;2023-06-22T12:00:04;12.55;;;8.98;;
45198;SDS011;30941;46.422;18.772;2023-06-22T12:02:41;11.65;;;9.95;;
45198;SDS011;30941;46.422;18.772;2023-06-22T12:05:06;12.82;;;10.40;;
45198;SDS011;30941;46.422;18.772;2023-06-22T12:07:33;13.52;;;9.20;;
45198;SDS011;30941;46.422;18.772;2023-06-22T12:09:58;13.43;;;10.43;;
45198;SDS011;30941;46.422;18.772;2023-06-22T12:12:24;12.13;;;9.55;;
45198;SDS011;30941;46.422;18.772;2023-06-22T12:14:49;13.15;;;8.75;;
45198;SDS011;30941;46.422;18.772;2023-06-22T12:17:14;13.50;;;9.80;;
45198;SDS011;30941;46.422;18.772;2023-06-22T12:19:40;13.15;;;9.57;;
45198;SDS011;30941;46.422;18.772;2023-06-22T12:22:05;10.70;;;9.52;;
45198;SDS011;30941;46.422;18.772;2023-06-22T12:24:31;11.05;;;9.45;;
45198;SDS011;30941;46.422;18.772;2023-06-22T12:26:56;9.25;;;8.18;;
45198;SDS011;30941;46.422;18.772;2023-06-22T12:29:21;11.48;;;8.60;;
45198;SDS011;30941;46.422;18.772;2023-06-22T12:31:47;16.92;;;8.65;;
45198;SDS011;30941;46.422;18.772;2023-06-22T12:34:12;10.80;;;8.73;;
45198;SDS011;30941;46.422;18.772;2023-06-22T12:36:37;9.65;;;8.43;;
45198;SDS011;30941;46.422;18.772;2023-06-22T12:39:03;13.55;;;10.35;;
45198;SDS011;30941;46.422;18.772;2023-06-22T12:41:28;11.77;;;8.13;;
45198;SDS011;30941;46.422;18.772;2023-06-22T12:43:54;11.35;;;9.68;;
45198;SDS011;30941;46.422;18.772;2023-06-22T12:46:19;9.50;;;8.02;;
45198;SDS011;30941;46.422;18.772;2023-06-22T12:48:44;10.18;;;9.07;;
45198;SDS011;30941;46.422;18.772;2023-06-22T12:51:10;13.32;;;9.20;;
45198;SDS011;30941;46.422;18.772;2023-06-22T12:53:35;11.18;;;9.88;;
45198;SDS011;30941;46.422;18.772;2023-06-22T12:56:01;14.70;;;9.57;;
45198;SDS011;30941;46.422;18.772;2023-06-22T12:58:26;13.27;;;9.23;;
45198;SDS011;30941;46.422;18.772;2023-06-22T13:00:51;12.43;;;10.00;;
45198;SDS011;30941;46.422;18.772;2023-06-22T13:03:17;11.77;;;9.50;;
45198;SDS011;30941;46.422;18.772;2023-06-22T13:05:42;13.15;;;8.65;;
45198;SDS011;30941;46.422;18.772;2023-06-22T13:08:08;10.75;;;8.85;;
45198;SDS011;30941;46.422;18.772;2023-06-22T13:10:33;10.52;;;8.23;;
45198;SDS011;30941;46.422;18.772;2023-06-22T13:12:59;10.63;;;8.80;;
45198;SDS011;30941;46.422;18.772;2023-06-22T13:15:26;10.93;;;8.60;;
45198;SDS011;30941;46.422;18.772;2023-06-22T13:17:53;11.10;;;8.77;;
45198;SDS011;30941;46.422;18.772;2023-06-22T13:20:18;11.45;;;8.75;;
45198;SDS011;30941;46.422;18.772;2023-06-22T13:22:44;12.23;;;8.45;;
45198;SDS011;30941;46.422;18.772;2023-06-22T13:25:09;12.27;;;7.63;;
45198;SDS011;30941;46.422;18.772;2023-06-22T13:27:37;10.85;;;8.73;;
45198;SDS011;30941;46.422;18.772;2023-06-22T13:30:04;11.20;;;7.32;;
45198;SDS011;30941;46.422;18.772;2023-06-22T13:32:30;11.57;;;8.90;;
45198;SDS011;30941;46.422;18.772;2023-06-22T13:34:55;13.15;;;8.48;;
45198;SDS011;30941;46.422;18.772;2023-06-22T13:37:21;13.65;;;9.20;;
45198;SDS011;30941;46.422;18.772;2023-06-22T13:39:46;12.65;;;8.82;;
45198;SDS011;30941;46.422;18.772;2023-06-22T13:42:11;13.57;;;7.75;;
45198;SDS011;30941;46.422;18.772;2023-06-22T13:44:37;11.13;;;8.45;;
45198;SDS011;30941;46.422;18.772;2023-06-22T13:47:02;10.63;;;8.13;;
45198;SDS011;30941;46.422;18.772;2023-06-22T13:49:29;14.98;;;9.48;;
45198;SDS011;30941;46.422;18.772;2023-06-22T13:51:55;10.63;;;8.95;;
45198;SDS011;30941;46.422;18.772;2023-06-22T13:54:20;11.25;;;9.57;;
45198;SDS011;30941;46.422;18.772;2023-06-22T13:56:46;11.57;;;9.20;;
45198;SDS011;30941;46.422;18.772;2023-06-22T13:59:11;10.68;;;8.25;;
45198;SDS011;30941;46.422;18.772;2023-06-22T14:01:37;11.25;;;8.48;;
45198;SDS011;30941;46.422;18.772;2023-06-22T14:04:04;11.38;;;9.07;;
45198;SDS011;30941;46.422;18.772;2023-06-22T14:06:30;17.77;;;9.27;;
45198;SDS011;30941;46.422;18.772;2023-06-22T14:08:55;13.13;;;9.60;;
45198;SDS011;30941;46.422;18.772;2023-06-22T14:11:21;11.25;;;8.57;;
45198;SDS011;30941;46.422;18.772;2023-06-22T14:13:46;10.77;;;7.95;;